sensor_id;sensor_type;location;lat;lon;timestamp;P1;durP1;ratioP1;P2;durP2;ratioP2
45198;SDS011;30941;46.422;18.772;2023-07-02T00:00:29;8.55;;;6.25;;
45198;SDS011;30941;46.422;18.772;2023-07-02T00:02:55;8.52;;;6.50;;
45198;SDS011;30941;46.422;18.772;2023-07-02T00:05:20;7.85;;;5.60;;
45198;SDS011;30941;46.422;18.772;2023-07-02T00:07:46;8.32;;;6.32;;
45198;SDS011;30941;46.422;18.772;2023-07-02T00:10:11;7.50;;;5.78;;
45198;SDS011;30941;46.422;18.772;2023-07-02T00:12:37;11.15;;;5.72;;
45198;SDS011;30941;46.422;18.772;2023-07-02T00:15:02;9.38;;;6.63;;
45198;SDS011;30941;46.422;18.772;2023-07-02T00:17:28;7.70;;;6.18;;
45198;SDS011;30941;46.422;18.772;2023-07-02T00:19:54;8.38;;;6.00;;
45198;SDS011;30941;46.422;18.772;2023-07-02T00:22:19;9.68;;;5.50;;
45198;SDS011;30941;46.422;18.772;2023-07-02T00:24:45;8.40;;;6.25;;
45198;SDS011;30941;46.422;18.772;2023-07-02T00:27:10;7.80;;;5.93;;
45198;SDS011;30941;46.422;18.772;2023-07-02T00:29:36;7.53;;;5.55;;
45198;SDS011;30941;46.422;18.772;2023-07-02T00:32:01;11.70;;;5.72;;
45198;SDS011;30941;46.422;18.772;2023-07-02T00:34:27;8.35;;;6.13;;
45198;SDS011;30941;46.422;18.772;2023-07-02T00:36:52;8.95;;;6.05;;
45198;SDS011;30941;46.422;18.772;2023-07-02T00:39:17;7.97;;;6.18;;
45198;SDS011;30941;46.422;18.772;2023-07-02T00:41:43;9.77;;;6.93;;
45198;SDS011;30941;46.422;18.772;2023-07-02T00:44:11;10.40;;;7.35;;
45198;SDS011;30941;46.422;18.772;2023-07-02T00:46:37;10.73;;;7.03;;
45198;SDS011;30941;46.422;18.772;2023-07-02T00:49:04;9.27;;;6.55;;
45198;SDS011;30941;46.422;18.772;2023-07-02T00:51:29;12.48;;;6.35;;
45198;SDS011;30941;46.422;18.772;2023-07-02T00:53:56;10.10;;;6.05;;
45198;SDS011;30941;46.422;18.772;2023-07-02T00:56:23;9.25;;;6.82;;
45198;SDS011;30941;46.422;18.772;2023-07-02T00:58:50;9.95;;;7.38;;
45198;SDS011;30941;46.422;18.772;2023-07-02T01:01:18;11.45;;;7.35;;
45198;SDS011;30941;46.422;18.772;2023-07-02T01:04:02;9.15;;;6.75;;
45198;SDS011;30941;46.422;18.772;2023-07-02T01:06:33;9.32;;;6.53;;
45198;SDS011;30941;46.422;18.772;2023-07-02T01:09:03;9.65;;;7.35;;
45198;SDS011;30941;46.422;18.772;2023-07-02T01:11:31;9.00;;;6.88;;
45198;SDS011;30941;46.422;18.772;2023-07-02T01:13:59;9.23;;;7.00;;
45198;SDS011;30941;46.422;18.772;2023-07-02T01:16:27;11.45;;;7.30;;
45198;SDS011;30941;46.422;18.772;2023-07-02T01:18:55;11.13;;;7.45;;
45198;SDS011;30941;46.422;18.772;2023-07-02T01:21:22;10.52;;;7.45;;
45198;SDS011;30941;46.422;18.772;2023-07-02T01:23:48;9.82;;;7.82;;
45198;SDS011;30941;46.422;18.772;2023-07-02T01:26:14;9.35;;;7.47;;
45198;SDS011;30941;46.422;18.772;2023-07-02T01:28:39;10.02;;;7.60;;
45198;SDS011;30941;46.422;18.772;2023-07-02T01:31:04;10.13;;;7.30;;
45198;SDS011;30941;46.422;18.772;2023-07-02T01:33:32;10.98;;;7.80;;
45198;SDS011;30941;46.422;18.772;2023-07-02T01:35:58;9.23;;;7.00;;
45198;SDS011;30941;46.422;18.772;2023-07-02T01:38:23;11.88;;;7.72;;
45198;SDS011;30941;46.422;18.772;2023-07-02T01:40:48;10.32;;;7.40;;
45198;SDS011;30941;46.422;18.772;2023-07-02T01:43:14;9.70;;;7.93;;
45198;SDS011;30941;46.422;18.772;2023-07-02T01:45:41;12.05;;;8.35;;
45198;SDS011;30941;46.422;18.772;2023-07-02T01:48:06;17.20;;;8.77;;
45198;SDS011;30941;46.422;18.772;2023-07-02T01:50:32;12.85;;;7.88;;
45198;SDS011;30941;46.422;18.772;2023-07-02T01:52:57;10.73;;;8.38;;
45198;SDS011;30941;46.422;18.772;2023-07-02T01:55:22;11.48;;;8.27;;
45198;SDS011;30941;46.422;18.772;2023-07-02T01:57:48;13.75;;;8.35;;
45198;SDS011;30941;46.422;18.772;2023-07-02T02:00:13;11.55;;;8.05;;
45198;SDS011;30941;46.422;18.772;2023-07-02T02:02:39;9.85;;;7.97;;
45198;SDS011;30941;46.422;18.772;2023-07-02T02:05:04;12.80;;;9.02;;
45198;SDS011;30941;46.422;18.772;2023-07-02T02:07:30;10.52;;;8.18;;
45198;SDS011;30941;46.422;18.772;2023-07-02T02:09:55;12.23;;;8.10;;
45198;SDS011;30941;46.422;18.772;2023-07-02T02:12:21;11.82;;;8.98;;
45198;SDS011;30941;46.422;18.772;2023-07-02T02:14:46;13.38;;;9.32;;
45198;SDS011;30941;46.422;18.772;2023-07-02T02:17:11;11.07;;;8.52;;
45198;SDS011;30941;46.422;18.772;2023-07-02T02:19:37;11.15;;;8.52;;
45198;SDS011;30941;46.422;18.772;2023-07-02T02:22:02;17.15;;;8.70;;
45198;SDS011;30941;46.422;18.772;2023-07-02T02:24:28;13.77;;;9.05;;
45198;SDS011;30941;46.422;18.772;2023-07-02T02:26:53;12.27;;;9.05;;
45198;SDS011;30941;46.422;18.772;2023-07-02T02:29:18;11.40;;;8.40;;
45198;SDS011;30941;46.422;18.772;2023-07-02T02:31:44;11.20;;;8.38;;
45198;SDS011;30941;46.422;18.772;2023-07-02T02:34:09;12.73;;;8.40;;
45198;SDS011;30941;46.422;18.772;2023-07-02T02:36:34;19.58;;;9.07;;
45198;SDS011;30941;46.422;18.772;2023-07-02T02:39:00;14.77;;;9.70;;
45198;SDS011;30941;46.422;18.772;2023-07-02T02:41:26;11.20;;;8.85;;
45198;SDS011;30941;46.422;18.772;2023-07-02T02:43:51;12.23;;;8.88;;
45198;SDS011;30941;46.422;18.772;2023-07-02T02:46:23;10.90;;;8.65;;
45198;SDS011;30941;46.422;18.772;2023-07-02T02:48:49;11.73;;;8.68;;
45198;SDS011;30941;46.422;18.772;2023-07-02T02:51:14;13.20;;;8.82;;
45198;SDS011;30941;46.422;18.772;2023-07-02T02:53:40;12.95;;;9.18;;
45198;SDS011;30941;46.422;18.772;2023-07-02T02:56:05;12.07;;;8.77;;
45198;SDS011;30941;46.422;18.772;2023-07-02T02:58:30;12.43;;;9.25;;
45198;SDS011;30941;46.422;18.772;2023-07-02T03:00:56;16.63;;;9.73;;
45198;SDS011;30941;46.422;18.772;2023-07-02T03:03:21;12.55;;;9.45;;
45198;SDS011;30941;46.422;18.772;2023-07-02T03:05:49;12.48;;;8.50;;
45198;SDS011;30941;46.422;18.772;2023-07-02T03:08:15;14.07;;;8.93;;
45198;SDS011;30941;46.422;18.772;2023-07-02T03:10:41;11.75;;;8.43;;
45198;SDS011;30941;46.422;18.772;2023-07-02T03:13:06;12.35;;;9.35;;
45198;SDS011;30941;46.422;18.772;2023-07-02T03:15:32;13.95;;;9.90;;
45198;SDS011;30941;46.422;18.772;2023-07-02T03:17:57;12.57;;;9.88;;
45198;SDS011;30941;46.422;18.772;2023-07-02T03:20:23;11.98;;;9.75;;
45198;SDS011;30941;46.422;18.772;2023-07-02T03:22:48;12.75;;;10.43;;
45198;SDS011;30941;46.422;18.772;2023-07-02T03:25:14;15.63;;;10.55;;
45198;SDS011;30941;46.422;18.772;2023-07-02T03:27:40;12.70;;;10.27;;
45198;SDS011;30941;46.422;18.772;2023-07-02T03:30:05;12.20;;;9.38;;
45198;SDS011;30941;46.422;18.772;2023-07-02T03:32:31;16.13;;;10.10;;
45198;SDS011;30941;46.422;18.772;2023-07-02T03:34:56;14.15;;;9.95;;
45198;SDS011;30941;46.422;18.772;2023-07-02T03:37:22;11.07;;;9.52;;
45198;SDS011;30941;46.422;18.772;2023-07-02T03:39:47;12.40;;;9.77;;
45198;SDS011;30941;46.422;18.772;2023-07-02T03:42:12;14.10;;;9.57;;
45198;SDS011;30941;46.422;18.772;2023-07-02T03:44:38;12.25;;;9.85;;
45198;SDS011;30941;46.422;18.772;2023-07-02T03:47:03;13.25;;;9.88;;
45198;SDS011;30941;46.422;18.772;2023-07-02T03:49:29;12.02;;;9.25;;
45198;SDS011;30941;46.422;18.772;2023-07-02T03:51:54;14.32;;;10.30;;
45198;SDS011;30941;46.422;18.772;2023-07-02T03:54:19;13.55;;;9.10;;
45198;SDS011;30941;46.422;18.772;2023-07-02T03:56:45;13.57;;;9.55;;
45198;SDS011;30941;46.422;18.772;2023-07-02T03:59:10;13.40;;;9.43;;
45198;SDS011;30941;46.422;18.772;2023-07-02T04:01:36;12.95;;;8.60;;
45198;SDS011;30941;46.422;18.772;2023-07-02T04:04:01;13.73;;;9.20;;
45198;SDS011;30941;46.422;18.772;2023-07-02T04:06:26;11.77;;;8.85;;
45198;SDS011;30941;46.422;18.772;2023-07-02T04:08:52;11.82;;;8.68;;
45198;SDS011;30941;46.422;18.772;2023-07-02T04:11:17;12.02;;;8.32;;
45198;SDS011;30941;46.422;18.772;2023-07-02T04:13:43;12.75;;;8.57;;
45198;SDS011;30941;46.422;18.772;2023-07-02T04:16:08;10.48;;;8.38;;
45198;SDS011;30941;46.422;18.772;2023-07-02T04:18:33;13.18;;;7.90;;
45198;SDS011;30941;46.422;18.772;2023-07-02T04:20:59;12.95;;;8.18;;
45198;SDS011;30941;46.422;18.772;2023-07-02T04:23:25;13.25;;;8.00;;
45198;SDS011;30941;46.422;18.772;2023-07-02T04:25:50;12.43;;;8.25;;
45198;SDS011;30941;46.422;18.772;2023-07-02T04:28:16;10.10;;;7.28;;
45198;SDS011;30941;46.422;18.772;2023-07-02T04:30:42;11.77;;;7.53;;
45198;SDS011;30941;46.422;18.772;2023-07-02T04:33:07;10.75;;;7.03;;
45198;SDS011;30941;46.422;18.772;2023-07-02T04:35:33;10.38;;;7.18;;
45198;SDS011;30941;46.422;18.772;2023-07-02T04:37:59;10.35;;;6.72;;
45198;SDS011;30941;46.422;18.772;2023-07-02T04:40:25;9.63;;;6.57;;
45198;SDS011;30941;46.422;18.772;2023-07-02T04:42:51;8.77;;;6.18;;
45198;SDS011;30941;46.422;18.772;2023-07-02T04:45:22;8.90;;;5.68;;
45198;SDS011;30941;46.422;18.772;2023-07-02T04:47:51;7.25;;;5.25;;
45198;SDS011;30941;46.422;18.772;2023-07-02T04:50:17;7.47;;;4.68;;
45198;SDS011;30941;46.422;18.772;2023-07-02T04:52:43;7.43;;;4.90;;
45198;SDS011;30941;46.422;18.772;2023-07-02T04:55:08;7.10;;;4.95;;
45198;SDS011;30941;46.422;18.772;2023-07-02T04:57:34;7.18;;;4.65;;
45198;SDS011;30941;46.422;18.772;2023-07-02T04:59:59;5.97;;;4.50;;
45198;SDS011;30941;46.422;18.772;2023-07-02T05:02:25;7.82;;;5.25;;
45198;SDS011;30941;46.422;18.772;2023-07-02T05:04:50;7.05;;;4.60;;
45198;SDS011;30941;46.422;18.772;2023-07-02T05:07:16;9.57;;;5.47;;
45198;SDS011;30941;46.422;18.772;2023-07-02T05:09:41;8.15;;;5.07;;
45198;SDS011;30941;46.422;18.772;2023-07-02T05:12:07;7.97;;;4.90;;
45198;SDS011;30941;46.422;18.772;2023-07-02T05:14:32;8.98;;;5.00;;
45198;SDS011;30941;46.422;18.772;2023-07-02T05:16:58;7.53;;;4.43;;
45198;SDS011;30941;46.422;18.772;2023-07-02T05:19:23;7.88;;;4.55;;
45198;SDS011;30941;46.422;18.772;2023-07-02T05:21:49;8.30;;;4.65;;
45198;SDS011;30941;46.422;18.772;2023-07-02T05:24:14;7.15;;;5.15;;
45198;SDS011;30941;46.422;18.772;2023-07-02T05:26:39;6.68;;;4.85;;
45198;SDS011;30941;46.422;18.772;2023-07-02T05:29:05;7.22;;;5.05;;
45198;SDS011;30941;46.422;18.772;2023-07-02T05:31:30;7.15;;;5.00;;
45198;SDS011;30941;46.422;18.772;2023-07-02T05:33:56;8.55;;;3.97;;
45198;SDS011;30941;46.422;18.772;2023-07-02T05:36:21;7.25;;;5.05;;
45198;SDS011;30941;46.422;18.772;2023-07-02T05:38:47;8.65;;;5.70;;
45198;SDS011;30941;46.422;18.772;2023-07-02T05:41:19;9.35;;;5.78;;
45198;SDS011;30941;46.422;18.772;2023-07-02T05:43:45;10.85;;;4.45;;
45198;SDS011;30941;46.422;18.772;2023-07-02T05:46:10;8.80;;;5.10;;
45198;SDS011;30941;46.422;18.772;2023-07-02T05:48:37;6.88;;;4.55;;
45198;SDS011;30941;46.422;18.772;2023-07-02T05:51:02;8.70;;;5.00;;
45198;SDS011;30941;46.422;18.772;2023-07-02T05:53:28;11.27;;;5.47;;
45198;SDS011;30941;46.422;18.772;2023-07-02T05:55:53;6.45;;;4.63;;
45198;SDS011;30941;46.422;18.772;2023-07-02T05:58:19;9.30;;;5.38;;
45198;SDS011;30941;46.422;18.772;2023-07-02T06:00:44;8.27;;;4.63;;
45198;SDS011;30941;46.422;18.772;2023-07-02T06:03:14;8.00;;;4.30;;
45198;SDS011;30941;46.422;18.772;2023-07-02T06:05:45;7.68;;;4.97;;
45198;SDS011;30941;46.422;18.772;2023-07-02T06:08:11;10.18;;;4.78;;
45198;SDS011;30941;46.422;18.772;2023-07-02T06:10:36;5.97;;;4.38;;
45198;SDS011;30941;46.422;18.772;2023-07-02T06:13:02;6.97;;;4.47;;
45198;SDS011;30941;46.422;18.772;2023-07-02T06:15:27;5.70;;;4.22;;
45198;SDS011;30941;46.422;18.772;2023-07-02T06:17:52;6.35;;;4.15;;
45198;SDS011;30941;46.422;18.772;2023-07-02T06:20:18;7.55;;;4.32;;
45198;SDS011;30941;46.422;18.772;2023-07-02T06:22:43;6.50;;;4.13;;
45198;SDS011;30941;46.422;18.772;2023-07-02T06:25:08;7.57;;;4.57;;
45198;SDS011;30941;46.422;18.772;2023-07-02T06:27:34;8.05;;;4.88;;
45198;SDS011;30941;46.422;18.772;2023-07-02T06:29:59;7.38;;;4.28;;
45198;SDS011;30941;46.422;18.772;2023-07-02T06:32:25;6.72;;;4.47;;
45198;SDS011;30941;46.422;18.772;2023-07-02T06:34:50;6.72;;;4.20;;
45198;SDS011;30941;46.422;18.772;2023-07-02T06:37:15;5.97;;;4.10;;
45198;SDS011;30941;46.422;18.772;2023-07-02T06:39:41;6.07;;;4.70;;
45198;SDS011;30941;46.422;18.772;2023-07-02T06:42:06;5.88;;;4.22;;
45198;SDS011;30941;46.422;18.772;2023-07-02T06:44:32;5.70;;;3.65;;
45198;SDS011;30941;46.422;18.772;2023-07-02T06:46:57;5.72;;;3.72;;
45198;SDS011;30941;46.422;18.772;2023-07-02T06:49:23;6.28;;;4.10;;
45198;SDS011;30941;46.422;18.772;2023-07-02T06:51:48;5.57;;;3.78;;
45198;SDS011;30941;46.422;18.772;2023-07-02T06:54:13;8.82;;;4.10;;
45198;SDS011;30941;46.422;18.772;2023-07-02T06:56:39;8.27;;;4.07;;
45198;SDS011;30941;46.422;18.772;2023-07-02T06:59:04;6.82;;;4.00;;
45198;SDS011;30941;46.422;18.772;2023-07-02T07:01:29;5.47;;;3.70;;
45198;SDS011;30941;46.422;18.772;2023-07-02T07:03:55;4.20;;;3.28;;
45198;SDS011;30941;46.422;18.772;2023-07-02T07:06:20;5.93;;;3.38;;
45198;SDS011;30941;46.422;18.772;2023-07-02T07:08:45;5.90;;;3.55;;
45198;SDS011;30941;46.422;18.772;2023-07-02T07:11:11;7.78;;;4.03;;
45198;SDS011;30941;46.422;18.772;2023-07-02T07:13:36;6.10;;;3.38;;
45198;SDS011;30941;46.422;18.772;2023-07-02T07:16:01;5.60;;;3.42;;
45198;SDS011;30941;46.422;18.772;2023-07-02T07:18:27;5.38;;;3.55;;
45198;SDS011;30941;46.422;18.772;2023-07-02T07:20:52;6.75;;;3.88;;
45198;SDS011;30941;46.422;18.772;2023-07-02T07:23:18;8.57;;;3.20;;
45198;SDS011;30941;46.422;18.772;2023-07-02T07:25:43;4.95;;;3.03;;
45198;SDS011;30941;46.422;18.772;2023-07-02T07:28:09;6.50;;;3.65;;
45198;SDS011;30941;46.422;18.772;2023-07-02T07:30:40;5.15;;;3.47;;
45198;SDS011;30941;46.422;18.772;2023-07-02T07:33:06;4.32;;;3.20;;
45198;SDS011;30941;46.422;18.772;2023-07-02T07:35:32;6.20;;;3.58;;
45198;SDS011;30941;46.422;18.772;2023-07-02T07:37:57;6.25;;;3.40;;
45198;SDS011;30941;46.422;18.772;2023-07-02T07:40:22;6.75;;;3.33;;
45198;SDS011;30941;46.422;18.772;2023-07-02T07:42:48;6.45;;;3.50;;
45198;SDS011;30941;46.422;18.772;2023-07-02T07:45:13;4.97;;;3.28;;
45198;SDS011;30941;46.422;18.772;2023-07-02T07:47:39;5.60;;;3.40;;
45198;SDS011;30941;46.422;18.772;2023-07-02T07:50:04;5.15;;;2.85;;
45198;SDS011;30941;46.422;18.772;2023-07-02T07:52:36;5.22;;;3.05;;
45198;SDS011;30941;46.422;18.772;2023-07-02T07:55:05;6.60;;;3.00;;
45198;SDS011;30941;46.422;18.772;2023-07-02T07:57:31;5.68;;;3.22;;
45198;SDS011;30941;46.422;18.772;2023-07-02T07:59:56;6.13;;;3.45;;
45198;SDS011;30941;46.422;18.772;2023-07-02T08:02:22;5.78;;;3.63;;
45198;SDS011;30941;46.422;18.772;2023-07-02T08:04:48;5.85;;;3.45;;
45198;SDS011;30941;46.422;18.772;2023-07-02T08:07:13;5.82;;;3.67;;
45198;SDS011;30941;46.422;18.772;2023-07-02T08:09:39;7.80;;;4.35;;
45198;SDS011;30941;46.422;18.772;2023-07-02T08:12:05;5.20;;;3.28;;
45198;SDS011;30941;46.422;18.772;2023-07-02T08:14:30;6.07;;;3.63;;
45198;SDS011;30941;46.422;18.772;2023-07-02T08:16:56;5.43;;;3.30;;
45198;SDS011;30941;46.422;18.772;2023-07-02T08:19:21;5.50;;;3.78;;
45198;SDS011;30941;46.422;18.772;2023-07-02T08:21:47;4.80;;;3.80;;
45198;SDS011;30941;46.422;18.772;2023-07-02T08:24:12;5.80;;;3.30;;
45198;SDS011;30941;46.422;18.772;2023-07-02T08:26:38;6.22;;;3.40;;
45198;SDS011;30941;46.422;18.772;2023-07-02T08:29:04;4.97;;;3.60;;
45198;SDS011;30941;46.422;18.772;2023-07-02T08:31:29;6.20;;;3.50;;
45198;SDS011;30941;46.422;18.772;2023-07-02T08:33:55;5.47;;;3.90;;
45198;SDS011;30941;46.422;18.772;2023-07-02T08:36:20;5.63;;;3.70;;
45198;SDS011;30941;46.422;18.772;2023-07-02T08:38:45;23.98;;;6.93;;
45198;SDS011;30941;46.422;18.772;2023-07-02T08:41:11;14.18;;;6.07;;
45198;SDS011;30941;46.422;18.772;2023-07-02T08:43:37;23.92;;;6.72;;
45198;SDS011;30941;46.422;18.772;2023-07-02T08:46:02;6.93;;;3.53;;
45198;SDS011;30941;46.422;18.772;2023-07-02T08:48:28;9.90;;;4.60;;
45198;SDS011;30941;46.422;18.772;2023-07-02T08:50:54;5.38;;;3.75;;
45198;SDS011;30941;46.422;18.772;2023-07-02T08:53:20;6.72;;;4.13;;
45198;SDS011;30941;46.422;18.772;2023-07-02T08:55:50;8.90;;;3.75;;
45198;SDS011;30941;46.422;18.772;2023-07-02T08:58:15;6.38;;;3.20;;
45198;SDS011;30941;46.422;18.772;2023-07-02T09:00:52;6.13;;;3.72;;
45198;SDS011;30941;46.422;18.772;2023-07-02T09:03:31;5.53;;;3.85;;
45198;SDS011;30941;46.422;18.772;2023-07-02T09:05:57;5.95;;;3.60;;
45198;SDS011;30941;46.422;18.772;2023-07-02T09:08:25;6.47;;;3.42;;
45198;SDS011;30941;46.422;18.772;2023-07-02T09:10:51;6.35;;;4.20;;
45198;SDS011;30941;46.422;18.772;2023-07-02T09:13:17;7.07;;;3.42;;
45198;SDS011;30941;46.422;18.772;2023-07-02T09:15:42;4.35;;;3.13;;
45198;SDS011;30941;46.422;18.772;2023-07-02T09:18:18;6.30;;;3.35;;
45198;SDS011;30941;46.422;18.772;2023-07-02T09:20:44;4.90;;;3.10;;
45198;SDS011;30941;46.422;18.772;2023-07-02T09:23:09;5.95;;;3.33;;
45198;SDS011;30941;46.422;18.772;2023-07-02T09:25:38;5.78;;;3.22;;
45198;SDS011;30941;46.422;18.772;2023-07-02T09:28:19;5.05;;;3.13;;
45198;SDS011;30941;46.422;18.772;2023-07-02T09:30:49;10.88;;;3.90;;
45198;SDS011;30941;46.422;18.772;2023-07-02T09:33:18;4.82;;;3.58;;
45198;SDS011;30941;46.422;18.772;2023-07-02T09:35:44;5.55;;;3.22;;
45198;SDS011;30941;46.422;18.772;2023-07-02T09:38:10;4.10;;;2.90;;
45198;SDS011;30941;46.422;18.772;2023-07-02T09:40:43;7.35;;;3.20;;
45198;SDS011;30941;46.422;18.772;2023-07-02T09:43:11;5.00;;;3.47;;
45198;SDS011;30941;46.422;18.772;2023-07-02T09:45:36;5.90;;;3.55;;
45198;SDS011;30941;46.422;18.772;2023-07-02T09:48:02;5.72;;;3.03;;
45198;SDS011;30941;46.422;18.772;2023-07-02T09:50:29;4.57;;;3.10;;
45198;SDS011;30941;46.422;18.772;2023-07-02T09:52:55;8.85;;;3.15;;
45198;SDS011;30941;46.422;18.772;2023-07-02T09:55:21;4.63;;;3.33;;
45198;SDS011;30941;46.422;18.772;2023-07-02T09:57:46;6.15;;;3.08;;
45198;SDS011;30941;46.422;18.772;2023-07-02T10:00:13;6.43;;;3.30;;
45198;SDS011;30941;46.422;18.772;2023-07-02T10:02:39;5.13;;;3.58;;
45198;SDS011;30941;46.422;18.772;2023-07-02T10:05:04;4.72;;;3.55;;
45198;SDS011;30941;46.422;18.772;2023-07-02T10:07:30;4.38;;;3.00;;
45198;SDS011;30941;46.422;18.772;2023-07-02T10:09:58;6.47;;;3.45;;
45198;SDS011;30941;46.422;18.772;2023-07-02T10:12:24;4.50;;;2.75;;
45198;SDS011;30941;46.422;18.772;2023-07-02T10:14:51;4.85;;;3.03;;
45198;SDS011;30941;46.422;18.772;2023-07-02T10:17:27;6.38;;;3.38;;
45198;SDS011;30941;46.422;18.772;2023-07-02T10:20:00;5.72;;;3.42;;
45198;SDS011;30941;46.422;18.772;2023-07-02T10:22:42;4.93;;;3.30;;
45198;SDS011;30941;46.422;18.772;2023-07-02T10:25:08;5.18;;;3.10;;
45198;SDS011;30941;46.422;18.772;2023-07-02T10:27:34;7.63;;;3.50;;
45198;SDS011;30941;46.422;18.772;2023-07-02T10:30:01;5.88;;;3.05;;
45198;SDS011;30941;46.422;18.772;2023-07-02T10:32:28;4.35;;;2.97;;
45198;SDS011;30941;46.422;18.772;2023-07-02T10:34:54;4.60;;;3.28;;
45198;SDS011;30941;46.422;18.772;2023-07-02T10:37:19;5.15;;;3.33;;
45198;SDS011;30941;46.422;18.772;2023-07-02T10:39:45;7.68;;;3.63;;
45198;SDS011;30941;46.422;18.772;2023-07-02T10:42:10;6.13;;;3.67;;
45198;SDS011;30941;46.422;18.772;2023-07-02T10:44:50;5.43;;;3.17;;
45198;SDS011;30941;46.422;18.772;2023-07-02T10:47:16;5.05;;;3.20;;
45198;SDS011;30941;46.422;18.772;2023-07-02T10:49:41;5.82;;;2.95;;
45198;SDS011;30941;46.422;18.772;2023-07-02T10:52:07;6.15;;;3.53;;
45198;SDS011;30941;46.422;18.772;2023-07-02T10:54:42;4.32;;;2.83;;
45198;SDS011;30941;46.422;18.772;2023-07-02T10:57:09;7.00;;;3.55;;
45198;SDS011;30941;46.422;18.772;2023-07-02T10:59:36;4.70;;;3.40;;
45198;SDS011;30941;46.422;18.772;2023-07-02T11:02:02;5.15;;;3.38;;
45198;SDS011;30941;46.422;18.772;2023-07-02T11:04:30;3.70;;;2.80;;
45198;SDS011;30941;46.422;18.772;2023-07-02T11:06:56;5.88;;;3.25;;
45198;SDS011;30941;46.422;18.772;2023-07-02T11:09:22;6.22;;;3.47;;
45198;SDS011;30941;46.422;18.772;2023-07-02T11:11:51;4.63;;;3.05;;
45198;SDS011;30941;46.422;18.772;2023-07-02T11:14:34;4.72;;;3.10;;
45198;SDS011;30941;46.422;18.772;2023-07-02T11:17:02;7.28;;;3.30;;
45198;SDS011;30941;46.422;18.772;2023-07-02T11:19:30;5.10;;;3.45;;
45198;SDS011;30941;46.422;18.772;2023-07-02T11:21:56;6.50;;;3.63;;
45198;SDS011;30941;46.422;18.772;2023-07-02T11:24:40;4.10;;;2.88;;
45198;SDS011;30941;46.422;18.772;2023-07-02T11:27:06;6.93;;;3.38;;
45198;SDS011;30941;46.422;18.772;2023-07-02T11:29:32;6.03;;;3.20;;
45198;SDS011;30941;46.422;18.772;2023-07-02T11:32:07;4.47;;;2.83;;
45198;SDS011;30941;46.422;18.772;2023-07-02T11:34:34;5.38;;;3.30;;
45198;SDS011;30941;46.422;18.772;2023-07-02T11:37:00;4.82;;;3.50;;
45198;SDS011;30941;46.422;18.772;2023-07-02T11:39:26;5.35;;;3.08;;
45198;SDS011;30941;46.422;18.772;2023-07-02T11:41:52;6.68;;;3.45;;
45198;SDS011;30941;46.422;18.772;2023-07-02T11:44:17;4.40;;;3.10;;
45198;SDS011;30941;46.422;18.772;2023-07-02T11:46:43;4.70;;;3.15;;
45198;SDS011;30941;46.422;18.772;2023-07-02T11:49:08;4.63;;;3.10;;
45198;SDS011;30941;46.422;18.772;2023-07-02T11:51:37;4.55;;;3.30;;
45198;SDS011;30941;46.422;18.772;2023-07-02T11:54:04;4.00;;;2.85;;
45198;SDS011;30941;46.422;18.772;2023-07-02T11:56:29;5.65;;;3.03;;
45198;SDS011;30941;46.422;18.772;2023-07-02T11:58:55;3.85;;;2.83;;
45198;SDS011;30941;46.422;18.772;2023-07-02T12:01:20;6.70;;;3.55;;
45198;SDS011;30941;46.422;18.772;2023-07-02T12:03:46;4.45;;;2.65;;
45198;SDS011;30941;46.422;18.772;2023-07-02T12:06:11;3.90;;;2.65;;
45198;SDS011;30941;46.422;18.772;2023-07-02T12:08:36;4.05;;;2.55;;
45198;SDS011;30941;46.422;18.772;2023-07-02T12:11:02;4.28;;;2.88;;
45198;SDS011;30941;46.422;18.772;2023-07-02T12:13:27;3.78;;;2.72;;
45198;SDS011;30941;46.422;18.772;2023-07-02T12:15:53;3.75;;;2.47;;
45198;SDS011;30941;46.422;18.772;2023-07-02T12:18:18;6.10;;;2.67;;
45198;SDS011;30941;46.422;18.772;2023-07-02T12:20:43;6.15;;;3.20;;
45198;SDS011;30941;46.422;18.772;2023-07-02T12:23:09;4.78;;;2.75;;
45198;SDS011;30941;46.422;18.772;2023-07-02T12:25:36;4.97;;;2.15;;
45198;SDS011;30941;46.422;18.772;2023-07-02T12:28:02;2.97;;;2.03;;
45198;SDS011;30941;46.422;18.772;2023-07-02T12:30:28;2.78;;;1.98;;
45198;SDS011;30941;46.422;18.772;2023-07-02T12:32:53;5.22;;;2.30;;
45198;SDS011;30941;46.422;18.772;2023-07-02T12:35:19;3.42;;;2.10;;
45198;SDS011;30941;46.422;18.772;2023-07-02T12:37:51;3.55;;;2.03;;
45198;SDS011;30941;46.422;18.772;2023-07-02T12:40:17;3.03;;;1.90;;
45198;SDS011;30941;46.422;18.772;2023-07-02T12:42:44;3.00;;;1.83;;
45198;SDS011;30941;46.422;18.772;2023-07-02T12:45:10;3.22;;;1.80;;
45198;SDS011;30941;46.422;18.772;2023-07-02T12:47:37;2.75;;;1.60;;
45198;SDS011;30941;46.422;18.772;2023-07-02T12:50:03;2.15;;;1.70;;
45198;SDS011;30941;46.422;18.772;2023-07-02T12:52:29;3.60;;;1.67;;
45198;SDS011;30941;46.422;18.772;2023-07-02T12:54:54;4.80;;;1.80;;
45198;SDS011;30941;46.422;18.772;2023-07-02T12:57:20;3.58;;;1.60;;
45198;SDS011;30941;46.422;18.772;2023-07-02T12:59:45;3.05;;;1.38;;
45198;SDS011;30941;46.422;18.772;2023-07-02T13:02:11;2.70;;;1.27;;
45198;SDS011;30941;46.422;18.772;2023-07-02T13:04:37;2.90;;;1.48;;
45198;SDS011;30941;46.422;18.772;2023-07-02T13:07:03;3.10;;;1.75;;
45198;SDS011;30941;46.422;18.772;2023-07-02T13:09:29;3.00;;;1.60;;
45198;SDS011;30941;46.422;18.772;2023-07-02T13:11:55;2.40;;;1.40;;
45198;SDS011;30941;46.422;18.772;2023-07-02T13:14:21;3.40;;;1.48;;
45198;SDS011;30941;46.422;18.772;2023-07-02T13:16:47;1.45;;;1.10;;
45198;SDS011;30941;46.422;18.772;2023-07-02T13:19:13;1.10;;;1.00;;
45198;SDS011;30941;46.422;18.772;2023-07-02T13:21:40;2.05;;;1.10;;
45198;SDS011;30941;46.422;18.772;2023-07-02T13:24:06;1.23;;;1.13;;
45198;SDS011;30941;46.422;18.772;2023-07-02T13:26:32;2.03;;;1.10;;
45198;SDS011;30941;46.422;18.772;2023-07-02T13:28:58;2.92;;;1.13;;
45198;SDS011;30941;46.422;18.772;2023-07-02T13:31:23;1.10;;;1.00;;
45198;SDS011;30941;46.422;18.772;2023-07-02T13:33:49;4.63;;;1.35;;
45198;SDS011;30941;46.422;18.772;2023-07-02T13:36:15;2.67;;;1.10;;
45198;SDS011;30941;46.422;18.772;2023-07-02T13:38:42;2.90;;;1.33;;
45198;SDS011;30941;46.422;18.772;2023-07-02T13:41:07;2.95;;;1.30;;
45198;SDS011;30941;46.422;18.772;2023-07-02T13:43:33;2.88;;;1.60;;
45198;SDS011;30941;46.422;18.772;2023-07-02T13:45:59;3.42;;;1.23;;
45198;SDS011;30941;46.422;18.772;2023-07-02T13:48:25;2.83;;;1.52;;
45198;SDS011;30941;46.422;18.772;2023-07-02T13:50:51;2.20;;;1.60;;
45198;SDS011;30941;46.422;18.772;2023-07-02T13:53:17;2.47;;;1.75;;
45198;SDS011;30941;46.422;18.772;2023-07-02T13:55:43;2.45;;;1.70;;
45198;SDS011;30941;46.422;18.772;2023-07-02T13:58:09;2.05;;;1.13;;
45198;SDS011;30941;46.422;18.772;2023-07-02T14:00:35;2.88;;;1.88;;
45198;SDS011;30941;46.422;18.772;2023-07-02T14:03:00;2.20;;;1.50;;
45198;SDS011;30941;46.422;18.772;2023-07-02T14:05:26;2.22;;;1.40;;
45198;SDS011;30941;46.422;18.772;2023-07-02T14:07:52;4.07;;;1.58;;
45198;SDS011;30941;46.422;18.772;2023-07-02T14:10:18;2.33;;;1.65;;
45198;SDS011;30941;46.422;18.772;2023-07-02T14:12:44;10.90;;;2.17;;
45198;SDS011;30941;46.422;18.772;2023-07-02T14:15:10;2.40;;;1.67;;
45198;SDS011;30941;46.422;18.772;2023-07-02T14:17:36;5.25;;;1.88;;
45198;SDS011;30941;46.422;18.772;2023-07-02T14:20:02;3.83;;;1.65;;
45198;SDS011;30941;46.422;18.772;2023-07-02T14:22:28;2.35;;;1.63;;
45198;SDS011;30941;46.422;18.772;2023-07-02T14:24:54;2.22;;;1.42;;